Time,TemperatureF,DewpointF,PressureIn,WindDirection,WindDirectionDegrees,WindSpeedMPH,WindSpeedGustMPH,Humidity,HourlyPrecipIn,Conditions,Clouds,dailyrainin,SoftwareType,DateUTC
2013-01-14 00:10:00,56.1,55.0,29.90,ENE,63,0.0,2.0,96,0.07,,,0.01,weatherlink.com 1.10,2013-01-14 05:10:00,
2013-01-14 00:25:00,56.3,55.0,29.89,West,269,1.0,2.0,96,0.08,,,0.03,weatherlink.com 1.10,2013-01-14 05:25:00,
2013-01-14 00:40:00,57.0,56.0,29.89,West,278,1.0,5.0,96,0.06,,,0.04,weatherlink.com 1.10,2013-01-14 05:40:00,
2013-01-14 00:55:00,57.2,56.0,29.88,West,271,0.0,3.0,96,0.05,,,0.04,weatherlink.com 1.10,2013-01-14 05:55:00,
2013-01-14 01:10:00,57.0,56.0,29.88,SW,217,0.0,3.0,96,0.03,,,0.04,weatherlink.com 1.10,2013-01-14 06:10:00,
2013-01-14 01:25:00,56.8,56.0,29.89,WSW,253,0.0,1.0,96,0.01,,,0.04,weatherlink.com 1.10,2013-01-14 06:25:00,
2013-01-14 01:40:00,57.1,56.0,29.89,North,1,0.0,3.0,96,0.00,,,0.04,weatherlink.com 1.10,2013-01-14 06:40:00,
2013-01-14 01:55:00,57.1,56.0,29.90,SW,221,1.0,2.0,96,0.00,,,0.04,weatherlink.com 1.10,2013-01-14 06:55:00,
2013-01-14 02:10:00,57.3,56.0,29.90,West,265,1.0,5.0,96,0.00,,,0.04,weatherlink.com 1.10,2013-01-14 07:10:00,
2013-01-14 02:25:00,54.6,51.0,29.93,WNW,298,11.0,18.0,86,0.01,,,0.05,weatherlink.com 1.10,2013-01-14 07:25:00,
2013-01-14 02:40:00,49.9,47.0,29.97,WNW,284,9.0,17.0,89,0.01,,,0.05,weatherlink.com 1.10,2013-01-14 07:40:00,
2013-01-14 02:55:00,46.8,44.0,29.99,WNW,298,8.0,15.0,90,0.01,,,0.05,weatherlink.com 1.10,2013-01-14 07:55:00,
2013-01-14 03:10:00,45.1,42.0,30.00,NW,311,7.0,14.0,90,0.01,,,0.05,weatherlink.com 1.10,2013-01-14 08:10:00,
2013-01-14 03:25:00,43.6,41.0,30.02,NW,309,5.0,12.0,91,0.00,,,0.05,weatherlink.com 1.10,2013-01-14 08:25:00,
2013-01-14 03:40:00,42.5,40.0,30.05,WNW,282,1.0,12.0,91,0.00,,,0.05,weatherlink.com 1.10,2013-01-14 08:40:00,
2013-01-14 03:55:00,42.2,40.0,30.05,SE,131,0.0,5.0,91,0.00,,,0.05,weatherlink.com 1.10,2013-01-14 08:55:00,
2013-01-14 04:11:00,42.2,40.0,30.05,SW,214,0.0,4.0,92,0.00,,,0.05,weatherlink.com 1.10,2013-01-14 09:11:00,
2013-01-14 04:26:00,42.2,40.0,30.06,WNW,300,2.0,3.0,92,0.00,,,0.05,weatherlink.com 1.10,2013-01-14 09:26:00,
2013-01-14 04:41:00,42.1,40.0,30.06,WSW,246,0.0,2.0,92,0.00,,,0.05,weatherlink.com 1.10,2013-01-14 09:41:00,
2013-01-14 04:56:00,41.8,40.0,30.06,WNW,289,0.0,3.0,92,0.00,,,0.05,weatherlink.com 1.10,2013-01-14 09:56:00,
2013-01-14 05:12:00,41.5,39.0,30.07,WSW,244,0.0,3.0,92,0.00,,,0.05,weatherlink.com 1.10,2013-01-14 10:12:00,
2013-01-14 05:26:00,41.5,39.0,30.07,WNW,287,2.0,3.0,92,0.00,,,0.05,weatherlink.com 1.10,2013-01-14 10:26:00,
2013-01-14 05:41:00,41.3,39.0,30.10,WNW,297,2.0,3.0,91,0.00,,,0.05,weatherlink.com 1.10,2013-01-14 10:41:00,
2013-01-14 05:56:00,41.2,39.0,30.11,WNW,300,1.0,4.0,91,0.00,,,0.05,weatherlink.com 1.10,2013-01-14 10:56:00,
2013-01-14 06:11:00,41.1,38.0,30.12,WNW,297,2.0,5.0,90,0.00,,,0.05,weatherlink.com 1.10,2013-01-14 11:11:00,
2013-01-14 06:26:00,41.1,38.0,30.13,WNW,298,3.0,3.0,90,0.00,,,0.05,weatherlink.com 1.10,2013-01-14 11:26:00,
2013-01-14 06:41:00,40.7,38.0,30.15,West,262,0.0,7.0,90,0.00,,,0.05,weatherlink.com 1.10,2013-01-14 11:41:00,
2013-01-14 06:56:00,40.6,38.0,30.16,WNW,295,2.0,5.0,89,0.00,,,0.05,weatherlink.com 1.10,2013-01-14 11:56:00,
2013-01-14 07:11:00,40.4,38.0,30.16,WNW,292,0.0,4.0,89,0.00,,,0.05,weatherlink.com 1.10,2013-01-14 12:11:00,
2013-01-14 07:26:00,40.1,37.0,30.18,WNW,290,2.0,7.0,89,0.00,,,0.05,weatherlink.com 1.10,2013-01-14 12:26:00,
2013-01-14 07:41:00,39.9,37.0,30.18,WNW,287,2.0,6.0,89,0.00,,,0.05,weatherlink.com 1.10,2013-01-14 12:41:00,
2013-01-14 07:56:00,39.6,36.0,30.20,NW,304,2.0,4.0,88,0.00,,,0.05,weatherlink.com 1.10,2013-01-14 12:56:00,
2013-01-14 08:11:00,39.1,36.0,30.21,WNW,285,3.0,7.0,87,0.00,,,0.05,weatherlink.com 1.10,2013-01-14 13:11:00,
2013-01-14 08:26:00,38.6,35.0,30.22,WNW,288,3.0,7.0,87,0.00,,,0.05,weatherlink.com 1.10,2013-01-14 13:26:00,
2013-01-14 08:41:00,38.3,35.0,30.23,WNW,288,3.0,5.0,86,0.00,,,0.05,weatherlink.com 1.10,2013-01-14 13:41:00,
2013-01-14 08:56:00,38.4,34.0,30.23,WNW,297,3.0,4.0,85,0.00,,,0.05,weatherlink.com 1.10,2013-01-14 13:56:00,
2013-01-14 09:11:00,38.4,34.0,30.24,WNW,300,3.0,5.0,84,0.00,,,0.05,weatherlink.com 1.10,2013-01-14 14:11:00,
2013-01-14 09:26:00,38.3,33.0,30.25,WNW,293,3.0,6.0,81,0.00,,,0.05,weatherlink.com 1.10,2013-01-14 14:26:00,
2013-01-14 09:41:00,38.0,33.0,30.26,WNW,288,4.0,7.0,82,0.00,,,0.05,weatherlink.com 1.10,2013-01-14 14:41:00,
2013-01-14 09:57:00,37.7,32.0,30.27,WNW,300,3.0,7.0,80,0.00,,,0.05,weatherlink.com 1.10,2013-01-14 14:57:00,
2013-01-14 10:12:00,37.8,32.0,30.27,WNW,289,3.0,6.0,80,0.00,,,0.05,weatherlink.com 1.10,2013-01-14 15:12:00,
2013-01-14 10:27:00,37.8,32.0,30.27,West,276,2.0,6.0,80,0.00,,,0.05,weatherlink.com 1.10,2013-01-14 15:27:00,
2013-01-14 10:42:00,37.9,33.0,30.27,West,278,3.0,5.0,81,0.00,,,0.05,weatherlink.com 1.10,2013-01-14 15:42:00,
2013-01-14 10:57:00,37.5,31.0,30.27,WNW,297,4.0,8.0,78,0.00,,,0.05,weatherlink.com 1.10,2013-01-14 15:57:00,
2013-01-14 11:12:00,37.7,31.0,30.27,WNW,285,3.0,6.0,77,0.00,,,0.05,weatherlink.com 1.10,2013-01-14 16:12:00,
2013-01-14 11:28:00,38.4,31.0,30.26,SW,232,0.0,6.0,74,0.00,,,0.05,weatherlink.com 1.10,2013-01-14 16:28:00,
2013-01-14 11:42:00,39.4,32.0,30.25,WNW,293,6.0,9.0,75,0.00,,,0.05,weatherlink.com 1.10,2013-01-14 16:42:00,
2013-01-14 11:57:00,40.0,33.0,30.25,West,273,6.0,7.0,76,0.00,,,0.05,weatherlink.com 1.10,2013-01-14 16:57:00,
2013-01-14 12:12:00,39.5,32.0,30.24,NE,54,1.0,9.0,74,0.00,,,0.05,weatherlink.com 1.10,2013-01-14 17:12:00,
2013-01-14 12:27:00,39.1,31.0,30.25,West,273,5.0,5.0,73,0.00,,,0.05,weatherlink.com 1.10,2013-01-14 17:27:00,
2013-01-14 12:42:00,38.9,31.0,30.24,North,360,2.0,5.0,73,0.00,,,0.05,weatherlink.com 1.10,2013-01-14 17:42:00,
2013-01-14 12:57:00,38.6,30.0,30.24,WSW,242,0.0,4.0,71,0.00,,,0.05,weatherlink.com 1.10,2013-01-14 17:57:00,
2013-01-14 13:12:00,39.3,31.0,30.24,NW,304,1.0,7.0,72,0.00,,,0.05,weatherlink.com 1.10,2013-01-14 18:12:00,
2013-01-14 13:27:00,39.3,30.0,30.23,West,280,3.0,7.0,70,0.00,,,0.05,weatherlink.com 1.10,2013-01-14 18:27:00,
2013-01-14 13:42:00,39.2,29.0,30.22,NW,319,3.0,4.0,68,0.00,,,0.05,weatherlink.com 1.10,2013-01-14 18:42:00,
2013-01-14 13:57:00,39.5,30.0,30.22,North,11,1.0,5.0,69,0.00,,,0.05,weatherlink.com 1.10,2013-01-14 18:57:00,
2013-01-14 14:12:00,39.7,31.0,30.23,WSW,255,2.0,6.0,70,0.00,,,0.05,weatherlink.com 1.10,2013-01-14 19:12:00,
2013-01-14 14:27:00,39.7,30.0,30.22,West,278,3.0,5.0,68,0.00,,,0.05,weatherlink.com 1.10,2013-01-14 19:27:00,
2013-01-14 14:42:00,39.5,29.0,30.19,NNE,27,2.0,4.0,65,0.00,,,0.05,weatherlink.com 1.10,2013-01-14 19:42:00,
2013-01-14 14:57:00,39.1,28.0,30.18,ESE,117,1.0,3.0,65,0.00,,,0.05,weatherlink.com 1.10,2013-01-14 19:57:00,
2013-01-14 15:12:00,39.1,29.0,30.19,North,356,1.0,2.0,67,0.00,,,0.05,weatherlink.com 1.10,2013-01-14 20:12:00,
2013-01-14 15:27:00,39.1,29.0,30.22,North,357,1.0,5.0,68,0.00,,,0.05,weatherlink.com 1.10,2013-01-14 20:27:00,
2013-01-14 15:42:00,38.8,28.0,30.23,NNW,329,0.0,3.0,66,0.00,,,0.05,weatherlink.com 1.10,2013-01-14 20:42:00,
2013-01-14 15:57:00,38.5,29.0,30.25,NW,318,0.0,5.0,68,0.00,,,0.05,weatherlink.com 1.10,2013-01-14 20:57:00,
2013-01-14 16:12:00,38.3,29.0,30.25,WNW,290,2.0,5.0,70,0.00,,,0.05,weatherlink.com 1.10,2013-01-14 21:12:00,
2013-01-14 16:27:00,37.9,28.0,30.26,NNW,345,0.0,3.0,68,0.00,,,0.05,weatherlink.com 1.10,2013-01-14 21:27:00,
2013-01-14 16:42:00,37.4,28.0,30.27,North,355,3.0,5.0,69,0.00,,,0.05,weatherlink.com 1.10,2013-01-14 21:42:00,
2013-01-14 16:57:00,36.5,28.0,30.27,SW,231,3.0,5.0,70,0.00,,,0.05,weatherlink.com 1.10,2013-01-14 21:57:00,
2013-01-14 17:12:00,35.9,27.0,30.26,NNE,27,0.0,5.0,71,0.00,,,0.05,weatherlink.com 1.10,2013-01-14 22:12:00,
2013-01-14 17:27:00,35.5,27.0,30.29,West,280,1.0,3.0,72,0.00,,,0.05,weatherlink.com 1.10,2013-01-14 22:27:00,
2013-01-14 17:42:00,35.1,27.0,30.28,West,280,1.0,1.0,71,0.00,,,0.05,weatherlink.com 1.10,2013-01-14 22:42:00,
2013-01-14 17:57:00,35.1,27.0,30.31,WNW,284,1.0,2.0,73,0.00,,,0.05,weatherlink.com 1.10,2013-01-14 22:57:00,
2013-01-14 18:12:00,34.9,27.0,30.32,NW,309,1.0,3.0,73,0.00,,,0.05,weatherlink.com 1.10,2013-01-14 23:12:00,
2013-01-14 18:27:00,34.7,27.0,30.32,WNW,295,0.0,4.0,73,0.00,,,0.05,weatherlink.com 1.10,2013-01-14 23:27:00,
2013-01-14 18:42:00,34.3,26.0,30.32,NNE,22,0.0,2.0,73,0.00,,,0.05,weatherlink.com 1.10,2013-01-14 23:42:00,
2013-01-14 18:57:00,33.7,25.0,30.31,North,8,0.0,5.0,71,0.00,,,0.05,weatherlink.com 1.10,2013-01-14 23:57:00,
2013-01-14 19:12:00,33.4,25.0,30.31,NNE,13,0.0,2.0,72,0.00,,,0.05,weatherlink.com 1.10,2013-01-15 00:12:00,
2013-01-14 19:27:00,33.3,26.0,30.31,North,6,0.0,1.0,73,0.00,,,0.05,weatherlink.com 1.10,2013-01-15 00:27:00,
2013-01-14 19:42:00,33.1,26.0,30.31,WNW,295,0.0,1.0,74,0.00,,,0.05,weatherlink.com 1.10,2013-01-15 00:42:00,
2013-01-14 19:57:00,32.8,25.0,30.32,WNW,292,1.0,4.0,73,0.00,,,0.05,weatherlink.com 1.10,2013-01-15 00:57:00,
2013-01-14 20:12:00,32.6,25.0,30.33,WNW,284,1.0,3.0,73,0.00,,,0.05,weatherlink.com 1.10,2013-01-15 01:12:00,
2013-01-14 20:27:00,32.4,25.0,30.32,West,264,0.0,2.0,74,0.00,,,0.05,weatherlink.com 1.10,2013-01-15 01:27:00,
2013-01-14 20:42:00,32.3,25.0,30.31,WNW,295,0.0,2.0,74,0.00,,,0.05,weatherlink.com 1.10,2013-01-15 01:42:00,
2013-01-14 20:57:00,32.1,25.0,30.31,North,1,0.0,1.0,74,0.00,,,0.05,weatherlink.com 1.10,2013-01-15 01:57:00,
2013-01-14 21:13:00,32.0,25.0,30.29,North,1,0.0,0.0,75,0.00,,,0.05,weatherlink.com 1.10,2013-01-15 02:13:00,
2013-01-14 21:28:00,31.9,25.0,30.28,North,1,0.0,0.0,75,0.00,,,0.05,weatherlink.com 1.10,2013-01-15 02:28:00,
2013-01-14 21:43:00,31.8,25.0,30.28,North,1,0.0,1.0,75,0.00,,,0.05,weatherlink.com 1.10,2013-01-15 02:43:00,
2013-01-14 21:58:00,32.1,26.0,30.29,WNW,290,0.0,-999.0,78,-99.99,,,0.05,weatherlink.com 1.10,2013-01-15 02:58:00,
2013-01-14 22:13:00,31.9,25.0,30.30,West,281,3.0,6.0,76,0.00,,,0.05,weatherlink.com 1.10,2013-01-15 03:13:00,
2013-01-14 22:28:00,31.6,25.0,30.31,West,274,1.0,6.0,75,0.00,,,0.05,weatherlink.com 1.10,2013-01-15 03:28:00,
2013-01-14 22:43:00,31.4,25.0,30.31,SSE,155,0.0,2.0,76,0.00,,,0.05,weatherlink.com 1.10,2013-01-15 03:43:00,
2013-01-14 22:58:00,31.2,24.0,30.29,East,89,1.0,2.0,76,0.00,,,0.05,weatherlink.com 1.10,2013-01-15 03:58:00,
2013-01-14 23:13:00,31.0,24.0,30.24,East,85,1.0,3.0,76,0.00,,,0.05,weatherlink.com 1.10,2013-01-15 04:13:00,
2013-01-14 23:43:00,30.9,25.0,30.24,North,354,0.0,3.0,77,0.00,,,0.05,weatherlink.com 1.10,2013-01-15 04:43:00,
2013-01-14 23:58:00,31.0,24.0,30.25,NNE,16,0.0,1.0,76,0.00,,,0.05,weatherlink.com 1.10,2013-01-15 04:58:00,